createdAt,value
2022-09-15T00:01:20.411Z,79.80
2022-09-15T00:03:48.911Z,80.57
2022-09-15T00:06:19.289Z,76.23
2022-09-15T00:08:48.541Z,62.10
2022-09-15T00:11:30.448Z,73.93
2022-09-15T00:14:06.270Z,80.97
2022-09-15T00:16:36.640Z,61.47
2022-09-15T00:19:07.324Z,77.07
2022-09-15T00:21:41.811Z,71.40
2022-09-15T00:24:11.507Z,69.67
2022-09-15T00:26:40.437Z,65.90
2022-09-15T00:29:14.443Z,61.30
2022-09-15T00:31:42.238Z,74.73
2022-09-15T00:34:14.312Z,64.83
2022-09-15T00:36:42.417Z,67.27
2022-09-15T00:39:10.529Z,66.33
2022-09-15T00:41:41.297Z,57.10
2022-09-15T00:44:23.801Z,59.20
2022-09-15T00:47:17.851Z,71.17
2022-09-15T00:49:53.948Z,70.30
2022-09-15T00:52:53.148Z,66.57
2022-09-15T00:55:31.360Z,64.60
2022-09-15T00:58:12.902Z,57.80
2022-09-15T01:00:57.309Z,67.13
2022-09-15T01:03:30.580Z,61.17
2022-09-15T01:06:38.160Z,60.70
2022-09-15T01:09:45.044Z,70.33
2022-09-15T01:12:13.382Z,64.30
2022-09-15T01:14:40.912Z,63.53
2022-09-15T01:17:34.613Z,77.67
2022-09-15T01:20:36.865Z,83.97
2022-09-15T01:24:42.695Z,80.83
2022-09-15T01:27:43.134Z,67.13
2022-09-15T01:30:26.594Z,67.47
2022-09-15T01:34:00.479Z,75.37
2022-09-15T01:36:50.893Z,93.90
2022-09-15T01:39:33.592Z,81.77
2022-09-15T01:42:10.405Z,81.67
2022-09-15T01:45:11.700Z,87.50
2022-09-15T01:47:42.188Z,97.27
2022-09-15T01:50:22.612Z,106.70
2022-09-15T01:52:59.648Z,102.33
2022-09-15T01:55:44.526Z,92.87
2022-09-15T01:58:12.342Z,95.53
2022-09-15T02:00:53.720Z,101.50
2022-09-15T02:03:54.960Z,99.67
2022-09-15T02:06:53.390Z,105.40
2022-09-15T02:09:50.669Z,98.63
2022-09-15T02:12:57.758Z,112.37
2022-09-15T02:15:48.049Z,100.10
2022-09-15T02:18:45.470Z,105.90
2022-09-15T02:21:36.378Z,143.20
2022-09-15T02:24:19.812Z,103.27
2022-09-15T02:26:55.085Z,105.70
2022-09-15T02:29:28.361Z,109.33
2022-09-15T02:32:02.635Z,110.87
2022-09-15T02:34:44.562Z,116.93
2022-09-15T02:37:13.983Z,122.13
2022-09-15T02:39:54.725Z,114.43
2022-09-15T02:42:32.815Z,107.43
2022-09-15T02:45:02.437Z,104.43
2022-09-15T02:47:32.103Z,101.67
2022-09-15T02:50:00.249Z,108.87
2022-09-15T02:52:27.905Z,116.00
2022-09-15T02:54:55.577Z,117.20
2022-09-15T02:57:24.156Z,105.37
2022-09-15T03:00:10.216Z,117.20
2022-09-15T03:02:37.835Z,112.73
2022-09-15T03:05:08.081Z,111.70
2022-09-15T03:07:37.624Z,111.53
2022-09-15T03:10:09.822Z,108.57
2022-09-15T03:12:46.105Z,130.03
2022-09-15T03:15:19.758Z,112.57
2022-09-15T03:17:49.444Z,102.40
2022-09-15T03:20:30.457Z,113.00
2022-09-15T03:22:58.136Z,100.50
2022-09-15T03:25:27.051Z,107.57
2022-09-15T03:27:54.880Z,101.40
2022-09-15T03:30:22.511Z,119.00
2022-09-15T03:32:50.610Z,95.33
2022-09-15T03:35:18.439Z,102.67
2022-09-15T03:37:46.105Z,83.27
2022-09-15T03:40:14.661Z,100.97
2022-09-15T03:42:42.557Z,92.60
2022-09-15T03:45:10.490Z,88.77
2022-09-15T03:47:38.083Z,85.07
2022-09-15T03:50:07.055Z,87.17
2022-09-15T03:52:34.672Z,78.47
2022-09-15T03:55:02.286Z,73.70
2022-09-15T03:57:29.792Z,79.57
2022-09-15T03:59:57.368Z,82.77
2022-09-15T04:02:25.071Z,79.33
2022-09-15T04:04:52.718Z,81.87
2022-09-15T04:07:20.270Z,88.87
2022-09-15T04:09:47.849Z,88.27
2022-09-15T04:12:16.496Z,81.33
2022-09-15T04:14:44.274Z,81.87
2022-09-15T04:17:11.819Z,80.87
2022-09-15T04:19:39.369Z,75.83
2022-09-15T04:22:07.157Z,80.30
2022-09-15T04:24:35.075Z,86.07
2022-09-15T04:27:03.299Z,71.73
2022-09-15T04:29:31.046Z,78.23
2022-09-15T04:31:58.740Z,81.03
2022-09-15T04:34:26.410Z,58.47
2022-09-15T04:36:53.964Z,70.93
2022-09-15T04:39:21.686Z,63.67
2022-09-15T04:41:49.238Z,64.50
2022-09-15T04:44:17.012Z,63.80
2022-09-15T04:46:49.262Z,69.20
2022-09-15T04:49:18.022Z,65.20
2022-09-15T04:51:45.915Z,67.17
2022-09-15T04:54:13.647Z,55.73
2022-09-15T04:56:41.200Z,72.37
2022-09-15T04:59:17.888Z,70.33
2022-09-15T05:01:46.695Z,65.60
2022-09-15T05:04:14.597Z,71.53
2022-09-15T05:06:42.169Z,65.20
2022-09-15T05:09:14.531Z,61.70
2022-09-15T05:11:42.172Z,66.83
2022-09-15T05:14:11.820Z,68.03
2022-09-15T05:16:40.324Z,62.60
2022-09-15T05:19:10.114Z,56.43
2022-09-15T05:21:38.559Z,67.67
2022-09-15T05:24:06.789Z,58.53
2022-09-15T05:26:34.381Z,62.10
2022-09-15T05:29:01.992Z,64.33
2022-09-15T05:31:36.685Z,63.27
2022-09-15T05:34:06.365Z,59.83
2022-09-15T05:36:34.739Z,64.33
2022-09-15T05:39:02.537Z,63.43
2022-09-15T05:41:30.982Z,66.47
2022-09-15T05:43:59.475Z,66.43
2022-09-15T05:46:29.387Z,60.00
2022-09-15T05:48:59.390Z,58.37
2022-09-15T05:51:27.703Z,59.27
2022-09-15T05:53:55.330Z,61.23
2022-09-15T05:56:24.701Z,56.80
2022-09-15T05:58:53.061Z,62.37
2022-09-15T06:01:31.120Z,59.53
2022-09-15T06:03:58.997Z,68.40
2022-09-15T06:06:27.204Z,65.87
2022-09-15T06:09:00.660Z,56.40
2022-09-15T06:11:35.974Z,54.47
2022-09-15T06:14:06.073Z,62.33
2022-09-15T06:16:36.288Z,61.67
2022-09-15T06:19:05.370Z,54.23
2022-09-15T06:21:34.551Z,57.90
2022-09-15T06:24:07.818Z,63.47
2022-09-15T06:26:36.459Z,53.97
2022-09-15T06:29:06.439Z,50.13
2022-09-15T06:31:35.836Z,55.13
2022-09-15T06:34:04.159Z,52.13
2022-09-15T06:36:33.153Z,49.43
2022-09-15T06:39:00.691Z,49.87
2022-09-15T06:41:38.195Z,50.47
2022-09-15T06:44:21.521Z,51.27
2022-09-15T06:46:50.626Z,41.73
2022-09-15T06:49:19.223Z,44.77
2022-09-15T06:51:46.878Z,34.00
2022-09-15T06:54:16.331Z,46.77
2022-09-15T06:56:44.703Z,34.93
2022-09-15T06:59:20.091Z,35.90
2022-09-15T07:01:47.938Z,34.10
2022-09-15T07:04:15.591Z,31.87
2022-09-15T07:06:43.153Z,33.77
2022-09-15T07:09:12.568Z,29.00
2022-09-15T07:11:41.141Z,32.60
2022-09-15T07:14:09.109Z,25.40
2022-09-15T07:16:36.783Z,33.20
2022-09-15T07:19:06.010Z,23.80
2022-09-15T07:21:34.609Z,26.40
2022-09-15T07:24:06.823Z,18.70
2022-09-15T07:26:35.422Z,19.87
2022-09-15T07:29:07.483Z,22.83
2022-09-15T07:31:39.293Z,17.33
2022-09-15T07:34:08.313Z,18.50
2022-09-15T07:36:36.775Z,18.27
2022-09-15T07:39:06.252Z,17.23
2022-09-15T07:41:34.464Z,19.90
2022-09-15T07:44:02.834Z,16.63
2022-09-15T07:46:33.441Z,19.97
2022-09-15T07:49:03.369Z,15.70
2022-09-15T07:51:31.827Z,21.50
2022-09-15T07:53:59.497Z,19.77
2022-09-15T07:56:27.360Z,14.30
2022-09-15T07:58:55.057Z,18.10
2022-09-15T08:01:22.809Z,16.40
2022-09-15T08:03:52.628Z,11.40
2022-09-15T08:06:25.571Z,15.73
2022-09-15T08:08:59.231Z,13.50
2022-09-15T08:11:28.406Z,12.97
2022-09-15T08:13:56.302Z,13.53
2022-09-15T08:16:25.229Z,13.20
2022-09-15T08:18:55.238Z,8.50
2022-09-15T08:21:24.028Z,8.17
2022-09-15T08:23:59.988Z,11.20
2022-09-15T08:26:31.041Z,10.60
2022-09-15T08:28:59.357Z,11.37
2022-09-15T08:31:30.191Z,7.70
2022-09-15T08:33:58.014Z,8.17
2022-09-15T08:36:28.207Z,7.70
2022-09-15T08:38:57.067Z,6.27
2022-09-15T08:41:48.536Z,10.23
2022-09-15T08:44:56.917Z,7.87
2022-09-15T08:47:49.032Z,6.57
2022-09-15T08:50:41.045Z,8.37
2022-09-15T08:53:38.859Z,9.53
2022-09-15T08:56:18.419Z,10.03
2022-09-15T08:58:47.199Z,4.57
2022-09-15T09:02:12.657Z,6.00
2022-09-15T09:05:54.389Z,6.93
2022-09-15T09:09:03.409Z,6.10
2022-09-15T09:12:19.321Z,9.70
2022-09-15T09:15:38.073Z,6.70
2022-09-15T09:19:32.346Z,6.60
2022-09-15T09:22:15.905Z,7.30
2022-09-15T09:24:51.689Z,7.10
2022-09-15T09:27:36.048Z,16.60
2022-09-15T09:30:22.094Z,11.30
2022-09-15T09:33:55.128Z,9.33
2022-09-15T09:36:26.504Z,7.20
2022-09-15T09:39:16.149Z,10.33
2022-09-15T09:41:45.083Z,18.40
2022-09-15T09:44:15.548Z,9.30
2022-09-15T09:46:44.328Z,10.60
2022-09-15T09:49:25.205Z,6.70
2022-09-15T09:52:03.749Z,13.73
2022-09-15T09:54:34.357Z,6.97
2022-09-15T09:57:14.354Z,9.27
2022-09-15T09:59:51.938Z,9.97
2022-09-15T10:02:24.963Z,5.20
2022-09-15T10:05:20.695Z,3.73
2022-09-15T10:07:49.091Z,7.57
2022-09-15T10:10:28.878Z,7.10
2022-09-15T10:12:58.157Z,9.17
2022-09-15T10:15:34.914Z,10.30
2022-09-15T10:18:03.272Z,8.73
2022-09-15T10:20:51.536Z,7.50
2022-09-15T10:23:19.071Z,9.67
2022-09-15T10:25:59.258Z,8.73
2022-09-15T10:28:29.082Z,7.10
2022-09-15T10:31:13.394Z,3.27
2022-09-15T10:33:46.211Z,6.10
2022-09-15T10:36:24.581Z,4.87
2022-09-15T10:39:53.374Z,6.13
2022-09-15T10:43:09.020Z,7.40
2022-09-15T10:45:49.058Z,6.77
2022-09-15T10:48:53.162Z,9.20
2022-09-15T10:51:41.859Z,8.90
2022-09-15T10:55:51.144Z,4.80
2022-09-15T10:59:22.962Z,6.60
2022-09-15T11:02:50.651Z,8.70
2022-09-15T11:05:52.097Z,8.40
2022-09-15T11:09:23.590Z,6.00
2022-09-15T11:12:29.768Z,9.10
2022-09-15T11:15:21.703Z,9.40
2022-09-15T11:18:13.801Z,10.80
2022-09-15T11:21:36.859Z,7.00
2022-09-15T11:24:43.596Z,8.10
2022-09-15T11:27:49.641Z,3.70
2022-09-15T11:30:36.617Z,10.20
2022-09-15T11:33:21.169Z,4.60
2022-09-15T11:36:42.002Z,4.20
2022-09-15T11:39:41.722Z,5.53
2022-09-15T11:43:00.582Z,5.13
2022-09-15T11:45:44.585Z,4.97
2022-09-15T11:48:33.864Z,5.27
2022-09-15T11:51:07.202Z,5.70
2022-09-15T11:54:24.079Z,4.70
2022-09-15T11:56:54.677Z,8.80
2022-09-15T11:59:59.412Z,7.40
2022-09-15T12:03:02.575Z,7.67
2022-09-15T12:05:54.689Z,5.73
2022-09-15T12:09:01.307Z,3.80
2022-09-15T12:11:42.561Z,4.43
2022-09-15T12:14:34.162Z,4.43
2022-09-15T12:17:06.526Z,5.43
2022-09-15T12:19:34.115Z,8.50
2022-09-15T12:22:25.835Z,7.70
2022-09-15T12:25:12.959Z,11.97
2022-09-15T12:27:40.623Z,9.20
2022-09-15T12:30:42.000Z,6.80
2022-09-15T12:34:00.159Z,9.30
2022-09-15T12:36:51.245Z,8.50
2022-09-15T12:39:59.141Z,7.87
2022-09-15T12:42:34.668Z,9.20
2022-09-15T12:45:36.386Z,8.50
2022-09-15T12:48:33.934Z,10.97
2022-09-15T12:51:10.636Z,8.67
2022-09-15T12:53:56.953Z,9.43
2022-09-15T12:56:34.310Z,5.37
2022-09-15T12:59:15.136Z,7.10
2022-09-15T13:01:50.723Z,7.20
2022-09-15T13:04:41.462Z,6.03
2022-09-15T13:07:21.452Z,8.80
2022-09-15T13:10:13.678Z,12.17
2022-09-15T13:12:58.382Z,4.40
2022-09-15T13:15:28.697Z,6.60
2022-09-15T13:17:58.164Z,6.33
2022-09-15T13:20:38.937Z,8.77
2022-09-15T13:23:14.723Z,4.27
2022-09-15T13:25:46.813Z,4.80
2022-09-15T13:28:18.227Z,4.53
2022-09-15T13:31:37.552Z,5.17
2022-09-15T13:35:16.844Z,4.57
2022-09-15T13:38:50.393Z,4.00
2022-09-15T13:42:07.112Z,4.67
2022-09-15T13:45:42.478Z,3.07
2022-09-15T13:49:15.487Z,4.80
2022-09-15T13:52:18.965Z,5.53
2022-09-15T13:55:28.015Z,6.47
2022-09-15T14:01:03.658Z,2.33
2022-09-15T14:03:57.907Z,3.20
2022-09-15T14:06:43.357Z,5.80
2022-09-15T14:09:47.772Z,4.17
2022-09-15T14:12:19.679Z,8.00
2022-09-15T14:14:57.236Z,7.00
2022-09-15T14:17:52.905Z,7.63
2022-09-15T14:20:39.931Z,7.83
2022-09-15T14:23:23.433Z,5.33
2022-09-15T14:26:01.449Z,6.00
2022-09-15T14:28:49.744Z,5.37
2022-09-15T14:31:36.966Z,6.33
2022-09-15T14:34:38.748Z,4.13
2022-09-15T14:37:35.553Z,7.47
2022-09-15T14:40:31.787Z,4.37
2022-09-15T14:43:00.530Z,4.17
2022-09-15T14:45:54.101Z,4.60
2022-09-15T14:48:28.414Z,8.83
2022-09-15T14:51:19.128Z,8.83
2022-09-15T14:54:00.344Z,5.13
2022-09-15T14:56:43.157Z,5.57
2022-09-15T14:59:53.198Z,5.60
2022-09-15T15:03:24.095Z,4.87
2022-09-15T15:07:12.081Z,6.10
2022-09-15T15:09:56.915Z,6.83
2022-09-15T15:12:58.343Z,4.87
2022-09-15T15:15:28.521Z,4.93
2022-09-15T15:18:00.544Z,3.77
2022-09-15T15:20:30.853Z,3.93
2022-09-15T15:23:27.664Z,7.77
2022-09-15T15:26:35.868Z,7.80
2022-09-15T15:29:29.068Z,7.10
2022-09-15T15:32:29.069Z,4.47
2022-09-15T15:35:04.120Z,7.90
2022-09-15T15:37:35.092Z,4.77
2022-09-15T15:40:14.175Z,7.90
2022-09-15T15:43:17.112Z,7.17
2022-09-15T15:46:03.864Z,5.20
2022-09-15T15:48:38.198Z,6.27
2022-09-15T15:51:09.830Z,7.10
2022-09-15T15:53:38.750Z,5.43
2022-09-15T15:56:09.108Z,5.50
2022-09-15T15:58:37.088Z,7.10
2022-09-15T16:01:05.458Z,4.80
2022-09-15T16:03:34.207Z,3.87
2022-09-15T16:06:03.454Z,5.90
2022-09-15T16:08:42.041Z,7.47
2022-09-15T16:11:17.035Z,2.83
2022-09-15T16:13:45.104Z,2.63
2022-09-15T16:16:22.793Z,4.20
2022-09-15T16:18:51.061Z,5.90
2022-09-15T16:21:38.428Z,5.50
2022-09-15T16:24:14.896Z,3.97
2022-09-15T16:26:45.045Z,10.93
2022-09-15T16:29:13.288Z,6.93
2022-09-15T16:31:43.031Z,5.97
2022-09-15T16:34:17.852Z,3.73
2022-09-15T16:36:46.450Z,3.60
2022-09-15T16:39:14.300Z,5.00
2022-09-15T16:41:42.234Z,8.40
2022-09-15T16:44:20.365Z,4.20
2022-09-15T16:46:48.162Z,6.10
2022-09-15T16:49:15.780Z,7.87
2022-09-15T16:51:43.391Z,12.80
2022-09-15T16:54:22.807Z,4.93
2022-09-15T16:56:51.999Z,6.50
2022-09-15T16:59:19.524Z,4.47
2022-09-15T17:01:47.163Z,2.70
2022-09-15T17:04:19.332Z,6.63
2022-09-15T17:06:47.560Z,5.27
2022-09-15T17:09:15.104Z,5.30
2022-09-15T17:11:43.112Z,5.83
2022-09-15T17:14:16.494Z,4.80
2022-09-15T17:16:47.395Z,4.57
2022-09-15T17:19:15.073Z,3.33
2022-09-15T17:21:42.667Z,3.60
2022-09-15T17:24:10.844Z,3.93
2022-09-15T17:26:38.492Z,5.40
2022-09-15T17:29:06.764Z,3.90
2022-09-15T17:31:34.552Z,3.57
2022-09-15T17:34:02.724Z,7.80
2022-09-15T17:36:30.512Z,3.53
2022-09-15T17:38:58.052Z,6.60
2022-09-15T17:41:25.845Z,5.27
2022-09-15T17:43:53.573Z,7.53
2022-09-15T17:46:21.330Z,4.90
2022-09-15T17:48:49.012Z,2.90
2022-09-15T17:51:17.949Z,8.80
2022-09-15T17:53:47.270Z,6.50
2022-09-15T17:56:15.051Z,4.37
2022-09-15T17:58:43.207Z,4.20
2022-09-15T18:01:15.603Z,5.33
2022-09-15T18:03:45.271Z,7.63
2022-09-15T18:06:13.789Z,5.00
2022-09-15T18:08:41.929Z,5.30
2022-09-15T18:11:15.256Z,4.50
2022-09-15T18:13:43.225Z,24.47
2022-09-15T18:16:15.276Z,4.60
2022-09-15T18:18:43.096Z,4.33
2022-09-15T18:21:28.771Z,2.77
2022-09-15T18:23:56.823Z,4.60
2022-09-15T18:26:26.569Z,5.10
2022-09-15T18:28:54.997Z,7.80
2022-09-15T18:31:22.865Z,3.90
2022-09-15T18:33:50.659Z,6.20
2022-09-15T18:36:18.331Z,7.57
2022-09-15T18:38:46.113Z,7.90
2022-09-15T18:41:13.677Z,7.33
2022-09-15T18:43:42.061Z,4.17
2022-09-15T18:46:09.647Z,4.87
2022-09-15T18:48:37.283Z,6.00
2022-09-15T18:51:10.784Z,6.07
2022-09-15T18:53:39.704Z,4.67
2022-09-15T18:56:15.408Z,4.40
2022-09-15T18:58:43.099Z,7.00
2022-09-15T19:01:10.795Z,5.17
2022-09-15T19:03:43.847Z,9.13
2022-09-15T19:06:12.515Z,6.00
2022-09-15T19:08:40.463Z,8.57
2022-09-15T19:11:08.125Z,7.77
2022-09-15T19:13:35.785Z,4.87
2022-09-15T19:16:07.201Z,5.13
2022-09-15T19:18:35.878Z,7.47
2022-09-15T19:21:12.278Z,4.47
2022-09-15T19:23:39.911Z,4.93
2022-09-15T19:26:13.900Z,4.97
2022-09-15T19:28:42.584Z,3.90
2022-09-15T19:31:12.851Z,5.73
2022-09-15T19:33:40.984Z,7.03
2022-09-15T19:36:28.482Z,3.10
2022-09-15T19:39:00.445Z,3.30
2022-09-15T19:41:28.112Z,2.30
2022-09-15T19:43:57.634Z,4.53
2022-09-15T19:46:26.530Z,5.97
2022-09-15T19:48:55.596Z,5.00
2022-09-15T19:51:25.120Z,5.13
2022-09-15T19:53:59.684Z,5.80
2022-09-15T19:56:29.908Z,7.43
2022-09-15T19:59:00.073Z,5.23
2022-09-15T20:01:30.958Z,5.93
2022-09-15T20:03:59.569Z,4.17
2022-09-15T20:06:31.679Z,3.70
2022-09-15T20:09:00.510Z,3.93
2022-09-15T20:11:30.351Z,3.77
2022-09-15T20:13:59.054Z,5.83
2022-09-15T20:16:27.586Z,8.07
2022-09-15T20:18:56.204Z,3.03
2022-09-15T20:21:51.720Z,3.07
2022-09-15T20:24:22.489Z,6.03
2022-09-15T20:26:51.245Z,5.13
2022-09-15T20:29:20.828Z,4.77
2022-09-15T20:31:49.108Z,5.70
2022-09-15T20:34:18.786Z,2.90
2022-09-15T20:36:47.539Z,6.90
2022-09-15T20:39:19.446Z,4.03
2022-09-15T20:41:46.996Z,5.00
2022-09-15T20:44:15.716Z,6.13
2022-09-15T20:46:43.538Z,3.70
2022-09-15T20:49:12.628Z,7.70
2022-09-15T20:51:40.504Z,6.30
2022-09-15T20:54:08.108Z,5.33
2022-09-15T20:56:37.465Z,8.73
2022-09-15T20:59:07.813Z,5.23
2022-09-15T21:01:39.910Z,2.73
2022-09-15T21:04:10.703Z,5.47
2022-09-15T21:06:39.057Z,3.90
2022-09-15T21:09:08.047Z,9.20
2022-09-15T21:11:36.262Z,4.13
2022-09-15T21:14:05.102Z,6.83
2022-09-15T21:16:35.049Z,6.80
2022-09-15T21:19:02.919Z,2.60
2022-09-15T21:21:33.965Z,4.03
2022-09-15T21:24:08.008Z,3.80
2022-09-15T21:26:59.857Z,6.30
2022-09-15T21:29:30.136Z,4.87
2022-09-15T21:31:58.160Z,7.07
2022-09-15T21:34:26.460Z,6.90
2022-09-15T21:36:54.150Z,3.53
2022-09-15T21:39:21.866Z,4.27
2022-09-15T21:41:50.174Z,4.53
2022-09-15T21:44:18.063Z,7.10
2022-09-15T21:46:47.085Z,4.50
2022-09-15T21:49:15.068Z,3.20
2022-09-15T21:51:42.625Z,5.50
2022-09-15T21:54:10.855Z,4.50
2022-09-15T21:56:38.564Z,6.47
2022-09-15T21:59:08.247Z,3.40
2022-09-15T22:01:36.415Z,6.03
2022-09-15T22:04:10.466Z,6.07
2022-09-15T22:06:41.818Z,5.13
2022-09-15T22:09:21.379Z,6.30
2022-09-15T22:11:49.488Z,7.97
2022-09-15T22:14:17.234Z,3.63
2022-09-15T22:16:45.005Z,6.03
2022-09-15T22:19:13.661Z,7.10
2022-09-15T22:21:42.121Z,3.60
2022-09-15T22:24:13.847Z,4.23
2022-09-15T22:26:43.882Z,3.60
2022-09-15T22:29:12.119Z,5.70
2022-09-15T22:31:40.963Z,7.47
2022-09-15T22:34:08.665Z,4.20
2022-09-15T22:36:36.595Z,5.30
2022-09-15T22:39:06.370Z,6.83
2022-09-15T22:41:40.763Z,6.83
2022-09-15T22:44:20.419Z,4.63
2022-09-15T22:46:50.017Z,4.90
2022-09-15T22:49:17.948Z,8.23
2022-09-15T22:51:45.962Z,3.37
2022-09-15T22:54:14.489Z,7.07
2022-09-15T22:56:42.184Z,3.33
2022-09-15T22:59:09.825Z,4.50
2022-09-15T23:01:37.885Z,6.30
2022-09-15T23:04:05.567Z,3.77
2022-09-15T23:06:34.996Z,8.03
2022-09-15T23:09:09.875Z,7.30
2022-09-15T23:11:40.199Z,7.80
2022-09-15T23:14:17.757Z,5.20
2022-09-15T23:16:46.673Z,2.77
2022-09-15T23:19:15.746Z,4.83
2022-09-15T23:21:43.381Z,7.30
2022-09-15T23:24:12.623Z,6.47
2022-09-15T23:26:40.855Z,5.17
2022-09-15T23:29:08.590Z,3.80
2022-09-15T23:31:36.930Z,7.43
2022-09-15T23:34:05.208Z,10.10
2022-09-15T23:36:32.783Z,6.33
2022-09-15T23:39:00.390Z,4.23
2022-09-15T23:41:28.037Z,3.87
2022-09-15T23:43:56.977Z,3.93
2022-09-15T23:46:24.601Z,6.20
2022-09-15T23:48:52.220Z,6.13
2022-09-15T23:51:20.317Z,6.93
2022-09-15T23:53:52.458Z,4.20
2022-09-15T23:56:22.091Z,4.87
2022-09-15T23:58:51.277Z,4.67
